sensor_id;sensor_type;location;lat;lon;timestamp;temperature;humidity
31619;DHT22;18230;51.502;7.108;2024-03-23T00:55:00;9.40;99.90
31619;DHT22;18230;51.502;7.108;2024-03-23T01:00:01;9.50;99.90
31619;DHT22;18230;51.502;7.108;2024-03-23T01:05:02;9.40;99.90
31619;DHT22;18230;51.502;7.108;2024-03-23T01:10:03;9.20;99.90
31619;DHT22;18230;51.502;7.108;2024-03-23T01:15:03;9.10;99.90
31619;DHT22;18230;51.502;7.108;2024-03-23T01:20:04;9.00;99.90
31619;DHT22;18230;51.502;7.108;2024-03-23T01:25:06;9.00;99.90
31619;DHT22;18230;51.502;7.108;2024-03-23T01:30:08;9.00;99.90
31619;DHT22;18230;51.502;7.108;2024-03-23T01:35:08;8.90;99.90
31619;DHT22;18230;51.502;7.108;2024-03-23T01:40:09;8.90;99.90
31619;DHT22;18230;51.502;7.108;2024-03-23T01:45:10;8.80;99.90
31619;DHT22;18230;51.502;7.108;2024-03-23T01:50:11;8.80;99.90
31619;DHT22;18230;51.502;7.108;2024-03-23T01:55:11;8.70;99.90
31619;DHT22;18230;51.502;7.108;2024-03-23T02:00:13;8.70;99.90
31619;DHT22;18230;51.502;7.108;2024-03-23T02:05:14;8.80;99.90
31619;DHT22;18230;51.502;7.108;2024-03-23T02:10:15;8.80;99.90
31619;DHT22;18230;51.502;7.108;2024-03-23T02:15:15;8.90;99.90
31619;DHT22;18230;51.502;7.108;2024-03-23T02:20:16;8.90;99.90
31619;DHT22;18230;51.502;7.108;2024-03-23T02:25:17;8.90;99.90
31619;DHT22;18230;51.502;7.108;2024-03-23T02:30:18;8.90;99.90
31619;DHT22;18230;51.502;7.108;2024-03-23T02:35:18;8.80;99.90
31619;DHT22;18230;51.502;7.108;2024-03-23T02:40:20;8.80;99.90
31619;DHT22;18230;51.502;7.108;2024-03-23T02:45:21;8.60;99.90
31619;DHT22;18230;51.502;7.108;2024-03-23T02:50:21;8.60;99.90
31619;DHT22;18230;51.502;7.108;2024-03-23T02:55:22;8.60;99.90
31619;DHT22;18230;51.502;7.108;2024-03-23T03:00:23;8.80;99.90
31619;DHT22;18230;51.502;7.108;2024-03-23T03:05:23;8.70;99.90
31619;DHT22;18230;51.502;7.108;2024-03-23T03:10:24;8.70;99.90
31619;DHT22;18230;51.502;7.108;2024-03-23T03:15:24;8.60;99.90
31619;DHT22;18230;51.502;7.108;2024-03-23T03:20:25;8.60;99.90
31619;DHT22;18230;51.502;7.108;2024-03-23T03:25:26;8.60;99.90
31619;DHT22;18230;51.502;7.108;2024-03-23T03:30:27;8.50;99.90
31619;DHT22;18230;51.502;7.108;2024-03-23T03:35:27;8.50;99.90
31619;DHT22;18230;51.502;7.108;2024-03-23T03:40:28;8.30;99.90
31619;DHT22;18230;51.502;7.108;2024-03-23T03:45:28;8.50;99.90
31619;DHT22;18230;51.502;7.108;2024-03-23T03:50:29;8.40;99.90
31619;DHT22;18230;51.502;7.108;2024-03-23T03:55:29;8.30;99.90
31619;DHT22;18230;51.502;7.108;2024-03-23T04:00:30;8.20;99.90
31619;DHT22;18230;51.502;7.108;2024-03-23T04:05:31;8.30;99.90
31619;DHT22;18230;51.502;7.108;2024-03-23T04:10:32;8.30;99.90
31619;DHT22;18230;51.502;7.108;2024-03-23T04:15:32;8.10;99.90
31619;DHT22;18230;51.502;7.108;2024-03-23T04:20:33;8.10;99.90
31619;DHT22;18230;51.502;7.108;2024-03-23T04:25:34;8.10;99.90
31619;DHT22;18230;51.502;7.108;2024-03-23T04:30:34;8.10;99.90
31619;DHT22;18230;51.502;7.108;2024-03-23T04:35:35;8.00;99.90
31619;DHT22;18230;51.502;7.108;2024-03-23T04:40:36;8.10;99.90
31619;DHT22;18230;51.502;7.108;2024-03-23T04:45:36;8.00;99.90
31619;DHT22;18230;51.502;7.108;2024-03-23T04:50:37;7.90;99.90
31619;DHT22;18230;51.502;7.108;2024-03-23T04:55:38;7.90;99.90
31619;DHT22;18230;51.502;7.108;2024-03-23T05:00:38;7.80;99.90
31619;DHT22;18230;51.502;7.108;2024-03-23T05:05:39;7.80;99.90
31619;DHT22;18230;51.502;7.108;2024-03-23T05:10:41;7.70;99.90
31619;DHT22;18230;51.502;7.108;2024-03-23T05:15:41;7.70;99.90
31619;DHT22;18230;51.502;7.108;2024-03-23T05:20:42;7.60;99.90
31619;DHT22;18230;51.502;7.108;2024-03-23T05:25:54;7.60;99.90
31619;DHT22;18230;51.502;7.108;2024-03-23T05:30:57;7.60;99.90
31619;DHT22;18230;51.502;7.108;2024-03-23T05:36:00;7.50;99.90
31619;DHT22;18230;51.502;7.108;2024-03-23T05:41:03;7.50;99.90
31619;DHT22;18230;51.502;7.108;2024-03-23T05:46:03;7.50;99.90
31619;DHT22;18230;51.502;7.108;2024-03-23T05:51:08;7.60;99.90
31619;DHT22;18230;51.502;7.108;2024-03-23T05:56:08;7.50;99.90
31619;DHT22;18230;51.502;7.108;2024-03-23T06:01:09;7.50;99.90
31619;DHT22;18230;51.502;7.108;2024-03-23T06:06:10;7.50;99.90
31619;DHT22;18230;51.502;7.108;2024-03-23T06:11:13;7.50;99.90
31619;DHT22;18230;51.502;7.108;2024-03-23T06:16:13;7.50;99.90
31619;DHT22;18230;51.502;7.108;2024-03-23T06:21:14;7.50;99.90
31619;DHT22;18230;51.502;7.108;2024-03-23T06:26:14;7.60;99.90
31619;DHT22;18230;51.502;7.108;2024-03-23T06:31:15;7.50;99.90
31619;DHT22;18230;51.502;7.108;2024-03-23T06:36:16;7.40;99.90
31619;DHT22;18230;51.502;7.108;2024-03-23T06:41:17;7.30;99.90
31619;DHT22;18230;51.502;7.108;2024-03-23T06:46:17;7.40;99.90
31619;DHT22;18230;51.502;7.108;2024-03-23T06:51:18;7.50;99.90
31619;DHT22;18230;51.502;7.108;2024-03-23T06:56:19;7.60;99.90
31619;DHT22;18230;51.502;7.108;2024-03-23T07:01:19;7.70;99.90
31619;DHT22;18230;51.502;7.108;2024-03-23T07:06:20;8.00;99.90
31619;DHT22;18230;51.502;7.108;2024-03-23T07:11:21;8.00;99.90
31619;DHT22;18230;51.502;7.108;2024-03-23T07:16:22;8.70;99.90
31619;DHT22;18230;51.502;7.108;2024-03-23T07:21:23;8.90;99.90
31619;DHT22;18230;51.502;7.108;2024-03-23T07:26:24;8.90;99.90
31619;DHT22;18230;51.502;7.108;2024-03-23T07:31:24;8.80;99.90
31619;DHT22;18230;51.502;7.108;2024-03-23T07:36:25;8.90;99.90
31619;DHT22;18230;51.502;7.108;2024-03-23T07:41:26;9.20;99.90
31619;DHT22;18230;51.502;7.108;2024-03-23T07:46:27;9.20;99.90
31619;DHT22;18230;51.502;7.108;2024-03-23T07:51:28;9.30;99.90
31619;DHT22;18230;51.502;7.108;2024-03-23T07:56:29;9.30;99.90
31619;DHT22;18230;51.502;7.108;2024-03-23T08:01:32;9.30;99.90
31619;DHT22;18230;51.502;7.108;2024-03-23T08:06:33;9.40;99.90
31619;DHT22;18230;51.502;7.108;2024-03-23T08:11:34;9.20;99.90
31619;DHT22;18230;51.502;7.108;2024-03-23T08:16:35;9.20;99.90
31619;DHT22;18230;51.502;7.108;2024-03-23T08:21:35;9.30;99.90
31619;DHT22;18230;51.502;7.108;2024-03-23T08:26:36;9.30;99.90
31619;DHT22;18230;51.502;7.108;2024-03-23T08:31:37;9.20;99.90
31619;DHT22;18230;51.502;7.108;2024-03-23T08:36:38;9.30;99.90
31619;DHT22;18230;51.502;7.108;2024-03-23T08:41:39;9.70;99.90
31619;DHT22;18230;51.502;7.108;2024-03-23T08:46:39;9.70;99.90
31619;DHT22;18230;51.502;7.108;2024-03-23T08:51:40;9.80;99.90
31619;DHT22;18230;51.502;7.108;2024-03-23T08:56:40;10.00;99.90
31619;DHT22;18230;51.502;7.108;2024-03-23T09:01:42;9.80;99.90
31619;DHT22;18230;51.502;7.108;2024-03-23T09:06:43;9.80;99.90
31619;DHT22;18230;51.502;7.108;2024-03-23T09:11:43;9.60;99.90
31619;DHT22;18230;51.502;7.108;2024-03-23T09:16:44;9.60;99.90
31619;DHT22;18230;51.502;7.108;2024-03-23T09:21:48;9.40;99.90
31619;DHT22;18230;51.502;7.108;2024-03-23T09:26:51;9.30;99.90
31619;DHT22;18230;51.502;7.108;2024-03-23T09:31:51;9.50;99.90
31619;DHT22;18230;51.502;7.108;2024-03-23T09:36:52;9.70;99.90
31619;DHT22;18230;51.502;7.108;2024-03-23T09:41:57;10.10;99.90
31619;DHT22;18230;51.502;7.108;2024-03-23T09:46:58;10.30;99.90
31619;DHT22;18230;51.502;7.108;2024-03-23T09:51:59;10.10;99.90
31619;DHT22;18230;51.502;7.108;2024-03-23T09:56:59;10.10;99.90
31619;DHT22;18230;51.502;7.108;2024-03-23T10:02:01;9.90;99.90
31619;DHT22;18230;51.502;7.108;2024-03-23T10:07:15;9.70;99.90
31619;DHT22;18230;51.502;7.108;2024-03-23T10:12:20;9.60;99.90
31619;DHT22;18230;51.502;7.108;2024-03-23T10:17:22;9.80;99.90
31619;DHT22;18230;51.502;7.108;2024-03-23T10:22:25;10.10;99.90
31619;DHT22;18230;51.502;7.108;2024-03-23T10:27:26;10.00;99.90
31619;DHT22;18230;51.502;7.108;2024-03-23T10:32:26;10.30;99.90
31619;DHT22;18230;51.502;7.108;2024-03-23T10:37:27;10.40;99.90
31619;DHT22;18230;51.502;7.108;2024-03-23T10:42:28;10.30;99.90
31619;DHT22;18230;51.502;7.108;2024-03-23T10:47:29;10.70;99.90
31619;DHT22;18230;51.502;7.108;2024-03-23T10:52:29;10.80;99.90
31619;DHT22;18230;51.502;7.108;2024-03-23T10:57:36;10.70;99.90
31619;DHT22;18230;51.502;7.108;2024-03-23T11:02:37;10.40;99.90
31619;DHT22;18230;51.502;7.108;2024-03-23T11:07:38;9.60;99.90
31619;DHT22;18230;51.502;7.108;2024-03-23T11:12:39;8.90;99.90
31619;DHT22;18230;51.502;7.108;2024-03-23T11:17:40;8.60;99.90
31619;DHT22;18230;51.502;7.108;2024-03-23T11:22:42;8.50;99.90
31619;DHT22;18230;51.502;7.108;2024-03-23T11:28:06;8.40;99.90
31619;DHT22;18230;51.502;7.108;2024-03-23T11:33:09;8.50;99.90
31619;DHT22;18230;51.502;7.108;2024-03-23T11:38:12;8.80;99.90
31619;DHT22;18230;51.502;7.108;2024-03-23T11:43:14;9.10;99.90
31619;DHT22;18230;51.502;7.108;2024-03-23T11:48:18;9.40;99.90
31619;DHT22;18230;51.502;7.108;2024-03-23T11:58:21;9.70;99.90
31619;DHT22;18230;51.502;7.108;2024-03-23T12:03:23;9.80;99.90
31619;DHT22;18230;51.502;7.108;2024-03-23T12:08:31;9.90;99.90
31619;DHT22;18230;51.502;7.108;2024-03-23T12:13:33;10.40;99.90
31619;DHT22;18230;51.502;7.108;2024-03-23T12:18:34;10.60;99.90
31619;DHT22;18230;51.502;7.108;2024-03-23T12:23:35;10.60;99.90
31619;DHT22;18230;51.502;7.108;2024-03-23T12:28:36;10.40;99.90
31619;DHT22;18230;51.502;7.108;2024-03-23T12:33:37;10.20;99.90
31619;DHT22;18230;51.502;7.108;2024-03-23T12:38:38;10.00;99.90
31619;DHT22;18230;51.502;7.108;2024-03-23T12:43:39;10.20;99.90
31619;DHT22;18230;51.502;7.108;2024-03-23T12:48:39;10.50;99.90
31619;DHT22;18230;51.502;7.108;2024-03-23T12:53:42;10.70;99.90
31619;DHT22;18230;51.502;7.108;2024-03-23T12:58:43;10.60;99.90
31619;DHT22;18230;51.502;7.108;2024-03-23T13:03:46;10.50;99.90
31619;DHT22;18230;51.502;7.108;2024-03-23T13:08:47;10.30;99.90
31619;DHT22;18230;51.502;7.108;2024-03-23T13:13:50;10.00;99.90
31619;DHT22;18230;51.502;7.108;2024-03-23T13:18:51;9.70;99.90
31619;DHT22;18230;51.502;7.108;2024-03-23T13:23:52;9.10;99.90
31619;DHT22;18230;51.502;7.108;2024-03-23T13:28:52;8.80;99.90
31619;DHT22;18230;51.502;7.108;2024-03-23T13:33:53;8.60;99.90
31619;DHT22;18230;51.502;7.108;2024-03-23T13:38:53;8.50;99.90
31619;DHT22;18230;51.502;7.108;2024-03-23T13:43:57;8.40;99.90
31619;DHT22;18230;51.502;7.108;2024-03-23T13:49:00;8.30;99.90
31619;DHT22;18230;51.502;7.108;2024-03-23T13:54:01;8.20;99.90
31619;DHT22;18230;51.502;7.108;2024-03-23T13:59:03;8.20;99.90
31619;DHT22;18230;51.502;7.108;2024-03-23T14:04:04;8.30;99.90
31619;DHT22;18230;51.502;7.108;2024-03-23T14:09:05;8.40;99.90
31619;DHT22;18230;51.502;7.108;2024-03-23T14:14:06;8.50;99.90
31619;DHT22;18230;51.502;7.108;2024-03-23T14:19:06;8.90;99.90
31619;DHT22;18230;51.502;7.108;2024-03-23T14:24:08;9.30;99.90
31619;DHT22;18230;51.502;7.108;2024-03-23T14:29:10;9.70;99.90
31619;DHT22;18230;51.502;7.108;2024-03-23T14:34:11;10.00;99.90
31619;DHT22;18230;51.502;7.108;2024-03-23T14:39:11;9.70;99.90
31619;DHT22;18230;51.502;7.108;2024-03-23T14:44:13;9.70;99.90
31619;DHT22;18230;51.502;7.108;2024-03-23T14:49:15;10.10;99.90
31619;DHT22;18230;51.502;7.108;2024-03-23T14:54:19;10.00;99.90
31619;DHT22;18230;51.502;7.108;2024-03-23T14:59:19;10.10;99.90
31619;DHT22;18230;51.502;7.108;2024-03-23T15:04:21;10.40;99.90
31619;DHT22;18230;51.502;7.108;2024-03-23T15:09:22;10.50;99.90
31619;DHT22;18230;51.502;7.108;2024-03-23T15:14:24;10.20;99.90
31619;DHT22;18230;51.502;7.108;2024-03-23T15:19:24;10.20;99.90
31619;DHT22;18230;51.502;7.108;2024-03-23T15:24:25;10.20;99.90
31619;DHT22;18230;51.502;7.108;2024-03-23T15:29:27;10.10;99.90
31619;DHT22;18230;51.502;7.108;2024-03-23T15:34:29;10.60;99.90
31619;DHT22;18230;51.502;7.108;2024-03-23T15:39:29;11.00;99.90
31619;DHT22;18230;51.502;7.108;2024-03-23T15:44:30;10.90;99.90
31619;DHT22;18230;51.502;7.108;2024-03-23T15:49:31;11.00;99.90
31619;DHT22;18230;51.502;7.108;2024-03-23T15:54:31;10.60;99.90
31619;DHT22;18230;51.502;7.108;2024-03-23T15:59:32;10.80;99.90
31619;DHT22;18230;51.502;7.108;2024-03-23T16:04:35;10.50;99.90
31619;DHT22;18230;51.502;7.108;2024-03-23T16:09:40;10.50;99.90
31619;DHT22;18230;51.502;7.108;2024-03-23T16:14:40;10.90;99.90
31619;DHT22;18230;51.502;7.108;2024-03-23T16:19:41;10.70;99.90
31619;DHT22;18230;51.502;7.108;2024-03-23T16:24:44;10.50;99.90
31619;DHT22;18230;51.502;7.108;2024-03-23T16:29:45;10.60;99.90
31619;DHT22;18230;51.502;7.108;2024-03-23T16:34:45;10.70;99.90
31619;DHT22;18230;51.502;7.108;2024-03-23T16:39:46;10.70;99.90
31619;DHT22;18230;51.502;7.108;2024-03-23T16:44:47;10.80;99.90
31619;DHT22;18230;51.502;7.108;2024-03-23T16:49:49;10.90;99.90
31619;DHT22;18230;51.502;7.108;2024-03-23T16:54:49;11.00;99.90
31619;DHT22;18230;51.502;7.108;2024-03-23T16:59:50;10.50;99.90
31619;DHT22;18230;51.502;7.108;2024-03-23T17:04:50;10.30;99.90
31619;DHT22;18230;51.502;7.108;2024-03-23T17:09:51;10.00;99.90
31619;DHT22;18230;51.502;7.108;2024-03-23T17:14:52;9.70;99.90
31619;DHT22;18230;51.502;7.108;2024-03-23T17:19:59;9.10;99.90
31619;DHT22;18230;51.502;7.108;2024-03-23T17:25:00;8.70;99.90
31619;DHT22;18230;51.502;7.108;2024-03-23T17:30:01;8.30;99.90
31619;DHT22;18230;51.502;7.108;2024-03-23T17:35:02;7.90;99.90
31619;DHT22;18230;51.502;7.108;2024-03-23T17:40:03;7.60;99.90
31619;DHT22;18230;51.502;7.108;2024-03-23T17:45:07;7.40;99.90
31619;DHT22;18230;51.502;7.108;2024-03-23T17:50:14;7.40;99.90
31619;DHT22;18230;51.502;7.108;2024-03-23T17:55:14;7.40;99.90
31619;DHT22;18230;51.502;7.108;2024-03-23T18:00:15;7.40;99.90
31619;DHT22;18230;51.502;7.108;2024-03-23T18:05:16;7.30;99.90
31619;DHT22;18230;51.502;7.108;2024-03-23T18:10:19;7.20;99.90
31619;DHT22;18230;51.502;7.108;2024-03-23T18:15:20;7.20;99.90
31619;DHT22;18230;51.502;7.108;2024-03-23T18:20:21;7.10;99.90
31619;DHT22;18230;51.502;7.108;2024-03-23T18:25:21;7.10;99.90
31619;DHT22;18230;51.502;7.108;2024-03-23T18:30:22;7.10;99.90
31619;DHT22;18230;51.502;7.108;2024-03-23T18:35:23;7.00;99.90
31619;DHT22;18230;51.502;7.108;2024-03-23T18:40:23;7.10;99.90
31619;DHT22;18230;51.502;7.108;2024-03-23T18:45:24;7.10;99.90
31619;DHT22;18230;51.502;7.108;2024-03-23T18:50:25;7.10;99.90
31619;DHT22;18230;51.502;7.108;2024-03-23T18:55:25;7.00;99.90
31619;DHT22;18230;51.502;7.108;2024-03-23T19:00:26;7.00;99.90
31619;DHT22;18230;51.502;7.108;2024-03-23T19:05:27;6.90;99.90
31619;DHT22;18230;51.502;7.108;2024-03-23T19:10:27;6.90;99.90
31619;DHT22;18230;51.502;7.108;2024-03-23T19:15:28;7.00;99.90
31619;DHT22;18230;51.502;7.108;2024-03-23T19:20:29;6.90;99.90
31619;DHT22;18230;51.502;7.108;2024-03-23T19:25:30;6.90;99.90
31619;DHT22;18230;51.502;7.108;2024-03-23T19:30:31;6.90;99.90
31619;DHT22;18230;51.502;7.108;2024-03-23T19:35:32;6.90;99.90
31619;DHT22;18230;51.502;7.108;2024-03-23T19:40:33;7.00;99.90
31619;DHT22;18230;51.502;7.108;2024-03-23T19:45:34;7.00;99.90
31619;DHT22;18230;51.502;7.108;2024-03-23T19:50:34;7.10;99.90
31619;DHT22;18230;51.502;7.108;2024-03-23T19:55:36;7.00;99.90
31619;DHT22;18230;51.502;7.108;2024-03-23T20:00:40;7.00;99.90
31619;DHT22;18230;51.502;7.108;2024-03-23T20:05:41;7.00;99.90
31619;DHT22;18230;51.502;7.108;2024-03-23T20:10:48;6.90;99.90
31619;DHT22;18230;51.502;7.108;2024-03-23T20:15:56;6.80;99.90
31619;DHT22;18230;51.502;7.108;2024-03-23T20:21:03;6.80;99.90
31619;DHT22;18230;51.502;7.108;2024-03-23T20:26:06;6.90;99.90
31619;DHT22;18230;51.502;7.108;2024-03-23T20:31:07;6.90;99.90
31619;DHT22;18230;51.502;7.108;2024-03-23T20:36:08;7.00;99.90
31619;DHT22;18230;51.502;7.108;2024-03-23T20:41:09;6.90;99.90
31619;DHT22;18230;51.502;7.108;2024-03-23T20:46:09;6.80;99.90
31619;DHT22;18230;51.502;7.108;2024-03-23T20:51:11;6.50;99.90
31619;DHT22;18230;51.502;7.108;2024-03-23T20:56:11;6.30;99.90
31619;DHT22;18230;51.502;7.108;2024-03-23T21:01:12;6.20;99.90
31619;DHT22;18230;51.502;7.108;2024-03-23T21:06:13;6.20;99.90
31619;DHT22;18230;51.502;7.108;2024-03-23T21:11:13;6.10;99.90
31619;DHT22;18230;51.502;7.108;2024-03-23T21:16:16;6.10;99.90
31619;DHT22;18230;51.502;7.108;2024-03-23T21:21:17;6.10;99.90
31619;DHT22;18230;51.502;7.108;2024-03-23T21:26:18;6.10;99.90
31619;DHT22;18230;51.502;7.108;2024-03-23T21:31:19;6.10;99.90
31619;DHT22;18230;51.502;7.108;2024-03-23T21:36:19;6.00;99.90
31619;DHT22;18230;51.502;7.108;2024-03-23T21:41:20;6.00;99.90
31619;DHT22;18230;51.502;7.108;2024-03-23T21:46:20;5.90;99.90
31619;DHT22;18230;51.502;7.108;2024-03-23T21:51:21;6.00;99.90
31619;DHT22;18230;51.502;7.108;2024-03-23T21:56:22;5.90;99.90
31619;DHT22;18230;51.502;7.108;2024-03-23T22:01:23;5.90;99.90
31619;DHT22;18230;51.502;7.108;2024-03-23T22:06:23;5.80;99.90
31619;DHT22;18230;51.502;7.108;2024-03-23T22:11:24;5.70;99.90
31619;DHT22;18230;51.502;7.108;2024-03-23T22:16:25;5.80;99.90
31619;DHT22;18230;51.502;7.108;2024-03-23T22:21:25;5.80;99.90
31619;DHT22;18230;51.502;7.108;2024-03-23T22:26:26;5.70;99.90
31619;DHT22;18230;51.502;7.108;2024-03-23T22:31:27;5.70;99.90
31619;DHT22;18230;51.502;7.108;2024-03-23T22:36:28;5.70;99.90
31619;DHT22;18230;51.502;7.108;2024-03-23T22:41:28;5.70;99.90
31619;DHT22;18230;51.502;7.108;2024-03-23T22:46:29;5.80;99.90
31619;DHT22;18230;51.502;7.108;2024-03-23T22:51:29;5.80;99.90
31619;DHT22;18230;51.502;7.108;2024-03-23T22:56:30;5.90;99.90
31619;DHT22;18230;51.502;7.108;2024-03-23T23:01:30;5.80;99.90
31619;DHT22;18230;51.502;7.108;2024-03-23T23:06:31;5.80;99.90
31619;DHT22;18230;51.502;7.108;2024-03-23T23:11:32;5.80;99.90
31619;DHT22;18230;51.502;7.108;2024-03-23T23:16:32;5.70;99.90
31619;DHT22;18230;51.502;7.108;2024-03-23T23:21:33;5.80;99.90
31619;DHT22;18230;51.502;7.108;2024-03-23T23:26:34;5.80;99.90
31619;DHT22;18230;51.502;7.108;2024-03-23T23:31:34;5.80;99.90
31619;DHT22;18230;51.502;7.108;2024-03-23T23:36:35;5.80;99.90
31619;DHT22;18230;51.502;7.108;2024-03-23T23:41:36;5.80;99.90
31619;DHT22;18230;51.502;7.108;2024-03-23T23:46:36;5.80;99.90
31619;DHT22;18230;51.502;7.108;2024-03-23T23:51:37;5.80;99.90
31619;DHT22;18230;51.502;7.108;2024-03-23T23:56:37;5.90;99.90
